createdAt,value
2022-07-25T00:01:42.911Z,100.00
2022-07-25T00:04:12.181Z,100.00
2022-07-25T00:06:39.471Z,100.00
2022-07-25T00:09:06.200Z,100.00
2022-07-25T00:11:32.967Z,100.00
2022-07-25T00:13:59.624Z,100.00
2022-07-25T00:16:26.524Z,100.00
2022-07-25T00:18:53.141Z,100.00
2022-07-25T00:21:19.751Z,100.00
2022-07-25T00:23:46.346Z,100.00
2022-07-25T00:26:12.943Z,100.00
2022-07-25T00:28:39.527Z,100.00
2022-07-25T00:31:06.180Z,100.00
2022-07-25T00:33:32.840Z,100.00
2022-07-25T00:35:59.805Z,100.00
2022-07-25T00:38:26.416Z,100.00
2022-07-25T00:40:54.250Z,100.00
2022-07-25T00:43:22.149Z,100.00
2022-07-25T00:45:48.699Z,100.00
2022-07-25T00:48:15.225Z,100.00
2022-07-25T00:50:42.207Z,100.00
2022-07-25T00:53:08.817Z,100.00
2022-07-25T00:55:36.070Z,100.00
2022-07-25T00:58:02.624Z,100.00
2022-07-25T01:00:29.534Z,100.00
2022-07-25T01:02:57.485Z,100.00
2022-07-25T01:05:24.175Z,100.00
2022-07-25T01:07:52.019Z,100.00
2022-07-25T01:10:18.659Z,100.00
2022-07-25T01:12:55.855Z,100.00
2022-07-25T01:15:25.966Z,100.00
2022-07-25T01:17:53.255Z,100.00
2022-07-25T01:20:25.100Z,100.00
2022-07-25T01:22:52.739Z,100.00
2022-07-25T01:25:20.020Z,100.00
2022-07-25T01:27:51.355Z,100.00
2022-07-25T01:30:22.832Z,100.00
2022-07-25T01:32:49.436Z,100.00
2022-07-25T01:35:16.443Z,100.00
2022-07-25T01:37:45.434Z,100.00
2022-07-25T01:40:14.252Z,100.00
2022-07-25T01:42:42.023Z,100.00
2022-07-25T01:45:09.542Z,100.00
2022-07-25T01:47:36.143Z,100.00
2022-07-25T01:50:03.734Z,100.00
2022-07-25T01:52:30.294Z,100.00
2022-07-25T01:54:56.866Z,100.00
2022-07-25T01:57:30.092Z,100.00
2022-07-25T01:59:58.597Z,100.00
2022-07-25T02:02:25.348Z,100.00
2022-07-25T02:04:51.976Z,100.00
2022-07-25T02:07:18.614Z,100.00
2022-07-25T02:09:45.180Z,100.00
2022-07-25T02:12:11.882Z,100.00
2022-07-25T02:14:38.540Z,100.00
2022-07-25T02:17:05.324Z,100.00
2022-07-25T02:19:31.907Z,100.00
2022-07-25T02:21:58.473Z,100.00
2022-07-25T02:24:25.031Z,100.00
2022-07-25T02:26:51.698Z,100.00
2022-07-25T02:29:18.388Z,100.00
2022-07-25T02:31:48.555Z,100.00
2022-07-25T02:34:15.139Z,100.00
2022-07-25T02:36:41.684Z,100.00
2022-07-25T02:39:08.262Z,100.00
2022-07-25T02:41:34.839Z,100.00
2022-07-25T02:44:01.377Z,100.00
2022-07-25T02:46:27.963Z,100.00
2022-07-25T02:48:54.691Z,100.00
2022-07-25T02:51:21.296Z,100.00
2022-07-25T02:53:57.077Z,100.00
2022-07-25T02:56:24.112Z,100.00
2022-07-25T02:58:51.133Z,100.00
2022-07-25T03:01:17.830Z,100.00
2022-07-25T03:03:44.554Z,100.00
2022-07-25T03:06:11.131Z,100.00
2022-07-25T03:08:37.747Z,100.00
2022-07-25T03:11:04.737Z,100.00
2022-07-25T03:13:33.080Z,100.00
2022-07-25T03:15:59.740Z,100.00
2022-07-25T03:18:26.348Z,100.00
2022-07-25T03:20:53.038Z,100.00
2022-07-25T03:23:19.559Z,100.00
2022-07-25T03:25:46.135Z,100.00
2022-07-25T03:28:12.710Z,100.00
2022-07-25T03:30:39.298Z,100.00
2022-07-25T03:33:05.821Z,100.00
2022-07-25T03:35:32.414Z,100.00
2022-07-25T03:37:59.034Z,100.00
2022-07-25T03:40:25.626Z,100.00
2022-07-25T03:42:52.194Z,100.00
2022-07-25T03:45:18.761Z,100.00
2022-07-25T03:47:45.349Z,100.00
2022-07-25T03:50:12.145Z,100.00
2022-07-25T03:52:38.826Z,100.00
2022-07-25T03:55:10.048Z,100.00
2022-07-25T03:57:37.009Z,100.00
2022-07-25T04:00:06.178Z,100.00
2022-07-25T04:02:33.256Z,100.00
2022-07-25T04:04:59.824Z,100.00
2022-07-25T04:07:26.658Z,100.00
2022-07-25T04:09:53.146Z,100.00
2022-07-25T04:12:19.809Z,100.00
2022-07-25T04:14:46.354Z,100.00
2022-07-25T04:17:13.063Z,100.00
2022-07-25T04:19:39.744Z,100.00
2022-07-25T04:22:06.418Z,100.00
2022-07-25T04:24:32.979Z,98.49
2022-07-25T04:26:59.565Z,93.88
2022-07-25T04:29:26.087Z,87.68
2022-07-25T04:31:52.671Z,84.81
2022-07-25T04:34:19.490Z,81.24
2022-07-25T04:36:46.079Z,82.95
2022-07-25T04:39:12.672Z,80.18
2022-07-25T04:41:39.295Z,77.37
2022-07-25T04:44:07.638Z,73.28
2022-07-25T04:46:34.922Z,72.52
2022-07-25T04:49:01.722Z,72.20
2022-07-25T04:51:28.384Z,71.72
2022-07-25T04:53:54.955Z,70.03
2022-07-25T04:56:21.486Z,67.94
2022-07-25T04:58:48.037Z,67.33
2022-07-25T05:01:14.778Z,68.07
2022-07-25T05:03:41.351Z,65.78
2022-07-25T05:06:16.736Z,65.79
2022-07-25T05:08:43.426Z,60.30
2022-07-25T05:11:10.030Z,58.95
2022-07-25T05:13:36.606Z,56.42
2022-07-25T05:16:03.238Z,56.34
2022-07-25T05:18:29.872Z,55.77
2022-07-25T05:20:56.552Z,55.90
2022-07-25T05:23:23.084Z,52.60
2022-07-25T05:25:49.629Z,52.38
2022-07-25T05:28:17.749Z,53.21
2022-07-25T05:30:44.342Z,53.30
2022-07-25T05:33:10.940Z,53.65
2022-07-25T05:35:37.625Z,50.57
2022-07-25T05:38:05.437Z,47.91
2022-07-25T05:40:32.004Z,48.44
2022-07-25T05:43:02.986Z,47.93
2022-07-25T05:45:30.649Z,46.98
2022-07-25T05:47:57.183Z,46.12
2022-07-25T05:50:23.801Z,44.38
2022-07-25T05:52:50.414Z,44.18
2022-07-25T05:55:17.614Z,42.79
2022-07-25T05:57:44.194Z,43.08
2022-07-25T06:00:11.308Z,44.21
2022-07-25T06:02:38.267Z,41.72
2022-07-25T06:05:05.395Z,43.50
2022-07-25T06:07:31.920Z,43.06
2022-07-25T06:09:58.761Z,42.58
2022-07-25T06:12:25.390Z,40.25
2022-07-25T06:14:52.173Z,38.49
2022-07-25T06:17:18.784Z,39.73
2022-07-25T06:19:45.451Z,35.02
2022-07-25T06:22:12.593Z,34.94
2022-07-25T06:24:41.638Z,36.72
2022-07-25T06:27:08.734Z,36.49
2022-07-25T06:29:35.483Z,38.59
2022-07-25T06:32:02.112Z,34.96
2022-07-25T06:34:29.060Z,34.22
2022-07-25T06:36:57.497Z,31.61
2022-07-25T06:39:25.385Z,31.15
2022-07-25T06:41:52.410Z,29.37
2022-07-25T06:44:19.105Z,33.86
2022-07-25T06:46:45.708Z,33.95
2022-07-25T06:49:12.480Z,33.54
2022-07-25T06:51:39.108Z,32.50
2022-07-25T06:54:05.969Z,28.35
2022-07-25T06:56:33.056Z,32.97
2022-07-25T06:59:00.431Z,30.62
2022-07-25T07:01:27.494Z,29.44
2022-07-25T07:03:54.155Z,32.05
2022-07-25T07:06:20.784Z,27.79
2022-07-25T07:08:47.330Z,29.50
2022-07-25T07:11:15.354Z,29.06
2022-07-25T07:13:41.978Z,28.48
2022-07-25T07:16:08.855Z,30.00
2022-07-25T07:18:35.560Z,30.58
2022-07-25T07:21:02.182Z,30.35
2022-07-25T07:23:29.027Z,28.97
2022-07-25T07:25:56.439Z,27.29
2022-07-25T07:28:23.133Z,31.06
2022-07-25T07:31:15.029Z,26.72
2022-07-25T07:33:37.620Z,28.09
2022-07-25T07:36:04.421Z,31.03
2022-07-25T07:38:30.966Z,28.27
2022-07-25T07:40:57.516Z,29.52
2022-07-25T07:43:29.370Z,29.53
2022-07-25T07:45:56.749Z,27.80
2022-07-25T07:48:23.309Z,25.89
2022-07-25T07:50:49.835Z,27.67
2022-07-25T07:53:16.374Z,29.76
2022-07-25T07:55:45.930Z,26.10
2022-07-25T07:58:15.844Z,27.42
2022-07-25T08:00:44.259Z,28.24
2022-07-25T08:03:10.898Z,28.79
2022-07-25T08:05:42.960Z,26.52
2022-07-25T08:08:12.056Z,26.87
2022-07-25T08:10:41.225Z,27.04
2022-07-25T08:13:17.851Z,22.79
2022-07-25T08:15:48.507Z,28.22
2022-07-25T08:18:17.468Z,27.96
2022-07-25T08:20:48.640Z,31.62
2022-07-25T08:23:15.577Z,27.88
2022-07-25T08:25:43.233Z,26.04
2022-07-25T08:28:10.297Z,27.82
2022-07-25T08:30:38.274Z,27.51
2022-07-25T08:33:07.994Z,23.89
2022-07-25T08:35:34.861Z,26.75
2022-07-25T08:38:02.788Z,28.01
2022-07-25T08:40:30.451Z,25.38
2022-07-25T08:42:58.475Z,25.99
2022-07-25T08:45:26.742Z,27.79
2022-07-25T08:47:54.556Z,27.43
2022-07-25T08:50:23.888Z,26.00
2022-07-25T08:52:57.439Z,26.76
2022-07-25T08:55:36.965Z,22.00
2022-07-25T08:58:03.549Z,25.15
2022-07-25T09:00:30.151Z,25.69
2022-07-25T09:03:02.528Z,23.43
2022-07-25T09:05:32.010Z,26.53
2022-07-25T09:08:10.435Z,25.83
2022-07-25T09:10:39.242Z,26.64
2022-07-25T09:13:10.904Z,22.47
2022-07-25T09:15:40.846Z,25.88
2022-07-25T09:18:15.975Z,26.06
2022-07-25T09:20:46.358Z,24.65
2022-07-25T09:23:28.274Z,25.64
2022-07-25T09:26:14.685Z,26.74
2022-07-25T09:28:47.405Z,25.40
2022-07-25T09:31:15.635Z,24.45
2022-07-25T09:33:51.696Z,24.46
2022-07-25T09:36:18.762Z,22.32
2022-07-25T09:38:55.905Z,26.92
2022-07-25T09:41:22.884Z,25.46
2022-07-25T09:43:49.412Z,24.80
2022-07-25T09:46:16.018Z,26.62
2022-07-25T09:48:45.199Z,24.88
2022-07-25T09:51:12.209Z,23.58
2022-07-25T09:53:40.348Z,24.47
2022-07-25T09:56:08.188Z,22.84
2022-07-25T09:58:34.651Z,24.17
2022-07-25T10:01:05.314Z,23.33
2022-07-25T10:03:51.404Z,22.50
2022-07-25T10:06:34.823Z,25.36
2022-07-25T10:09:01.485Z,24.83
2022-07-25T10:11:29.920Z,23.14
2022-07-25T10:13:57.130Z,26.42
2022-07-25T10:16:26.043Z,28.66
2022-07-25T10:18:57.851Z,23.80
2022-07-25T10:21:27.954Z,27.45
2022-07-25T10:24:03.713Z,27.39
2022-07-25T10:26:31.352Z,29.46
2022-07-25T10:28:59.090Z,24.17
2022-07-25T10:31:34.489Z,26.92
2022-07-25T10:34:04.228Z,27.08
2022-07-25T10:36:49.256Z,25.31
2022-07-25T10:39:18.363Z,24.87
2022-07-25T10:41:58.559Z,23.74
2022-07-25T10:44:30.495Z,25.04
2022-07-25T10:47:08.539Z,24.79
2022-07-25T10:50:13.494Z,24.11
2022-07-25T10:52:30.655Z,23.47
2022-07-25T10:54:59.362Z,24.86
2022-07-25T10:57:31.446Z,22.50
2022-07-25T11:00:06.617Z,22.72
2022-07-25T11:02:33.219Z,23.65
2022-07-25T11:05:02.030Z,26.07
2022-07-25T11:07:29.121Z,23.38
2022-07-25T11:10:01.254Z,24.58
2022-07-25T11:12:27.998Z,24.27
2022-07-25T11:15:08.153Z,23.88
2022-07-25T11:17:34.833Z,21.56
2022-07-25T11:20:06.910Z,24.69
2022-07-25T11:22:34.620Z,23.85
2022-07-25T11:25:02.351Z,26.43
2022-07-25T11:27:31.543Z,24.46
2022-07-25T11:30:15.632Z,22.79
2022-07-25T11:32:49.681Z,22.95
2022-07-25T11:35:22.082Z,23.07
2022-07-25T11:37:50.741Z,21.93
2022-07-25T11:40:18.568Z,23.51
2022-07-25T11:42:48.229Z,23.92
2022-07-25T11:45:34.064Z,26.43
2022-07-25T11:48:05.318Z,24.89
2022-07-25T11:50:33.503Z,22.83
2022-07-25T11:53:01.611Z,23.84
2022-07-25T11:55:30.631Z,24.52
2022-07-25T11:58:01.812Z,24.51
2022-07-25T12:00:29.586Z,24.16
2022-07-25T12:03:12.093Z,25.34
2022-07-25T12:05:42.329Z,25.41
2022-07-25T12:08:17.662Z,25.26
2022-07-25T12:10:47.535Z,27.44
2022-07-25T12:13:28.653Z,25.87
2022-07-25T12:15:59.716Z,29.43
2022-07-25T12:18:27.367Z,25.63
2022-07-25T12:20:54.050Z,26.75
2022-07-25T12:23:23.593Z,25.40
2022-07-25T12:25:50.873Z,26.71
2022-07-25T12:28:17.910Z,26.62
2022-07-25T12:30:46.420Z,26.95
2022-07-25T12:33:13.605Z,26.62
2022-07-25T12:35:41.238Z,24.76
2022-07-25T12:38:07.940Z,26.47
2022-07-25T12:40:34.626Z,26.22
2022-07-25T12:43:01.362Z,28.46
2022-07-25T12:45:28.193Z,28.70
2022-07-25T12:47:54.966Z,27.01
2022-07-25T12:50:22.330Z,25.86
2022-07-25T12:52:48.960Z,25.79
2022-07-25T12:55:18.518Z,27.59
2022-07-25T12:57:46.243Z,26.23
2022-07-25T13:00:15.648Z,25.95
2022-07-25T13:02:42.662Z,26.11
2022-07-25T13:05:10.269Z,27.97
2022-07-25T13:07:37.102Z,27.50
2022-07-25T13:10:04.714Z,26.58
2022-07-25T13:12:31.448Z,29.14
2022-07-25T13:14:57.996Z,27.22
2022-07-25T13:17:27.544Z,28.22
2022-07-25T13:19:55.380Z,26.51
2022-07-25T13:22:21.961Z,29.04
2022-07-25T13:24:48.577Z,28.96
2022-07-25T13:27:17.566Z,27.65
2022-07-25T13:29:44.146Z,28.25
2022-07-25T13:32:11.954Z,26.50
2022-07-25T13:34:38.611Z,26.70
2022-07-25T13:37:05.625Z,27.83
2022-07-25T13:39:32.136Z,28.27
2022-07-25T13:41:58.720Z,28.23
2022-07-25T13:44:25.209Z,29.39
2022-07-25T13:46:51.774Z,29.70
2022-07-25T13:49:18.478Z,29.24
2022-07-25T13:51:45.669Z,31.28
2022-07-25T13:54:12.946Z,31.95
2022-07-25T13:56:41.395Z,31.00
2022-07-25T13:59:08.870Z,32.60
2022-07-25T14:01:36.285Z,30.06
2022-07-25T14:04:02.964Z,30.88
2022-07-25T14:06:29.575Z,32.09
2022-07-25T14:08:56.129Z,31.55
2022-07-25T14:11:26.037Z,31.68
2022-07-25T14:13:56.907Z,30.27
2022-07-25T14:16:23.492Z,30.60
2022-07-25T14:18:50.792Z,29.82
2022-07-25T14:21:17.515Z,30.03
2022-07-25T14:23:44.128Z,30.33
2022-07-25T14:26:10.682Z,32.05
2022-07-25T14:28:37.491Z,30.15
2022-07-25T14:31:04.100Z,31.76
2022-07-25T14:33:30.769Z,30.30
2022-07-25T14:35:57.386Z,30.75
2022-07-25T14:38:23.927Z,31.96
2022-07-25T14:40:51.429Z,31.67
2022-07-25T14:43:18.078Z,30.83
2022-07-25T14:45:44.718Z,32.22
2022-07-25T14:48:11.250Z,32.06
2022-07-25T14:50:37.831Z,30.94
2022-07-25T14:53:04.360Z,31.88
2022-07-25T14:55:31.421Z,31.59
2022-07-25T14:58:02.324Z,30.94
2022-07-25T15:00:29.764Z,30.05
2022-07-25T15:02:57.140Z,31.32
2022-07-25T15:05:23.738Z,31.18
2022-07-25T15:07:50.381Z,30.00
2022-07-25T15:10:17.396Z,30.10
2022-07-25T15:12:43.943Z,29.34
2022-07-25T15:15:11.485Z,30.59
2022-07-25T15:17:38.729Z,31.36
2022-07-25T15:20:05.880Z,29.20
2022-07-25T15:22:32.512Z,29.14
2022-07-25T15:25:34.808Z,28.39
2022-07-25T15:27:45.687Z,28.43
2022-07-25T15:30:12.928Z,28.13
2022-07-25T15:32:40.205Z,28.12
2022-07-25T15:35:07.132Z,28.07
2022-07-25T15:37:33.704Z,28.76
2022-07-25T15:40:00.457Z,29.25
2022-07-25T15:42:29.181Z,28.11
2022-07-25T15:45:22.348Z,28.35
2022-07-25T15:47:45.198Z,28.51
2022-07-25T15:50:15.571Z,28.13
2022-07-25T15:52:42.153Z,29.40
2022-07-25T15:55:08.927Z,28.82
2022-07-25T15:57:35.526Z,29.27
2022-07-25T16:00:02.400Z,29.06
2022-07-25T16:02:28.945Z,29.52
2022-07-25T16:04:55.536Z,29.80
2022-07-25T16:07:22.170Z,30.68
2022-07-25T16:09:49.835Z,31.34
2022-07-25T16:12:16.531Z,30.42
2022-07-25T16:14:43.119Z,29.14
2022-07-25T16:17:09.906Z,28.50
2022-07-25T16:19:36.461Z,29.81
2022-07-25T16:22:02.997Z,29.77
2022-07-25T16:24:29.578Z,29.13
2022-07-25T16:26:56.225Z,29.40
2022-07-25T16:29:22.836Z,30.53
2022-07-25T16:31:51.055Z,30.31
2022-07-25T16:34:17.687Z,29.82
2022-07-25T16:36:44.385Z,31.62
2022-07-25T16:39:11.141Z,29.90
2022-07-25T16:41:37.840Z,30.87
2022-07-25T16:44:04.681Z,29.01
2022-07-25T16:46:31.381Z,31.19
2022-07-25T16:48:58.070Z,31.58
2022-07-25T16:51:24.762Z,33.80
2022-07-25T16:53:51.291Z,32.77
2022-07-25T16:56:18.091Z,33.30
2022-07-25T16:58:46.546Z,33.04
2022-07-25T17:01:14.232Z,32.51
2022-07-25T17:03:41.013Z,31.97
2022-07-25T17:06:08.334Z,31.48
2022-07-25T17:08:37.767Z,31.78
2022-07-25T17:11:05.225Z,31.85
2022-07-25T17:13:31.763Z,32.67
2022-07-25T17:15:58.540Z,32.80
2022-07-25T17:18:25.353Z,31.74
2022-07-25T17:20:53.188Z,31.59
2022-07-25T17:23:19.788Z,32.66
2022-07-25T17:25:50.505Z,32.15
2022-07-25T17:28:17.881Z,31.43
2022-07-25T17:30:45.624Z,33.24
2022-07-25T17:33:12.245Z,31.64
2022-07-25T17:35:38.827Z,32.13
2022-07-25T17:38:05.912Z,31.62
2022-07-25T17:40:34.507Z,31.50
2022-07-25T17:43:01.022Z,31.96
2022-07-25T17:45:27.557Z,31.27
2022-07-25T17:47:54.255Z,31.85
2022-07-25T17:50:28.612Z,32.01
2022-07-25T17:52:58.863Z,31.56
2022-07-25T17:55:26.163Z,31.67
2022-07-25T17:57:55.509Z,32.05
2022-07-25T18:00:23.552Z,32.09
2022-07-25T18:02:50.620Z,32.61
2022-07-25T18:05:18.472Z,33.32
2022-07-25T18:07:48.204Z,33.02
2022-07-25T18:10:18.329Z,33.46
2022-07-25T18:12:45.140Z,34.08
2022-07-25T18:15:12.344Z,34.61
2022-07-25T18:17:40.968Z,34.76
2022-07-25T18:20:08.194Z,34.69
2022-07-25T18:22:34.778Z,35.53
2022-07-25T18:25:01.393Z,37.65
2022-07-25T18:27:27.958Z,38.32
2022-07-25T18:29:54.552Z,39.20
2022-07-25T18:32:21.156Z,40.50
2022-07-25T18:34:47.717Z,42.34
2022-07-25T18:37:14.313Z,43.09
2022-07-25T18:39:42.106Z,44.36
2022-07-25T18:42:08.635Z,45.09
2022-07-25T18:44:35.188Z,45.92
2022-07-25T18:47:02.737Z,46.79
2022-07-25T18:49:29.403Z,47.54
2022-07-25T18:51:55.937Z,47.97
2022-07-25T18:54:22.571Z,47.58
2022-07-25T18:56:49.098Z,48.07
2022-07-25T18:59:16.027Z,49.15
2022-07-25T19:01:42.663Z,50.57
2022-07-25T19:04:09.563Z,50.30
2022-07-25T19:06:36.619Z,50.95
2022-07-25T19:09:03.694Z,52.50
2022-07-25T19:11:30.388Z,49.68
2022-07-25T19:13:57.565Z,44.78
2022-07-25T19:16:24.338Z,43.00
2022-07-25T19:18:50.956Z,44.07
2022-07-25T19:21:17.565Z,44.32
2022-07-25T19:23:50.188Z,44.43
2022-07-25T19:26:17.994Z,45.14
2022-07-25T19:28:44.642Z,44.86
2022-07-25T19:31:11.416Z,45.11
2022-07-25T19:33:38.858Z,46.99
2022-07-25T19:36:05.853Z,46.17
2022-07-25T19:38:32.742Z,46.16
2022-07-25T19:40:59.528Z,47.74
2022-07-25T19:43:26.131Z,47.94
2022-07-25T19:45:52.741Z,47.95
2022-07-25T19:48:23.557Z,48.44
2022-07-25T19:50:51.279Z,47.48
2022-07-25T19:53:17.857Z,47.92
2022-07-25T19:55:44.453Z,47.38
2022-07-25T19:58:11.133Z,47.99
2022-07-25T20:00:38.119Z,47.38
2022-07-25T20:03:05.167Z,48.29
2022-07-25T20:05:32.467Z,47.52
2022-07-25T20:07:59.034Z,47.46
2022-07-25T20:10:25.592Z,48.49
2022-07-25T20:12:52.167Z,47.28
2022-07-25T20:15:18.759Z,48.59
2022-07-25T20:17:45.339Z,48.63
2022-07-25T20:20:12.025Z,49.19
2022-07-25T20:22:38.649Z,49.56
2022-07-25T20:25:07.146Z,50.79
2022-07-25T20:27:34.135Z,52.90
2022-07-25T20:30:03.363Z,53.07
2022-07-25T20:32:30.464Z,52.90
2022-07-25T20:34:57.799Z,52.32
2022-07-25T20:37:24.538Z,53.55
2022-07-25T20:39:51.904Z,54.60
2022-07-25T20:42:18.627Z,55.93
2022-07-25T20:44:45.329Z,56.10
2022-07-25T20:47:14.740Z,56.23
2022-07-25T20:49:41.499Z,58.05
2022-07-25T20:52:09.071Z,56.69
2022-07-25T20:54:36.748Z,57.56
2022-07-25T20:57:03.994Z,58.60
2022-07-25T20:59:30.647Z,57.68
2022-07-25T21:01:57.652Z,60.26
2022-07-25T21:04:24.316Z,60.50
2022-07-25T21:06:50.916Z,61.20
2022-07-25T21:09:17.762Z,61.18
2022-07-25T21:11:44.434Z,62.31
2022-07-25T21:14:11.281Z,63.34
2022-07-25T21:16:38.022Z,62.12
2022-07-25T21:19:04.953Z,62.35
2022-07-25T21:21:32.113Z,63.37
2022-07-25T21:23:58.750Z,63.98
2022-07-25T21:26:25.751Z,62.36
2022-07-25T21:28:52.291Z,62.60
2022-07-25T21:31:19.217Z,61.03
2022-07-25T21:33:45.854Z,60.42
2022-07-25T21:36:12.394Z,59.96
2022-07-25T21:38:38.983Z,60.01
2022-07-25T21:41:06.639Z,56.51
2022-07-25T21:43:33.210Z,52.88
2022-07-25T21:45:59.768Z,52.79
2022-07-25T21:48:45.375Z,52.63
2022-07-25T21:51:19.139Z,52.40
2022-07-25T21:53:51.328Z,53.83
2022-07-25T21:56:18.586Z,55.80
2022-07-25T21:58:45.178Z,56.30
2022-07-25T22:01:11.881Z,57.76
2022-07-25T22:03:40.331Z,58.80
2022-07-25T22:06:08.400Z,60.19
2022-07-25T22:08:34.928Z,63.25
2022-07-25T22:11:15.918Z,66.26
2022-07-25T22:13:47.415Z,67.18
2022-07-25T22:16:14.027Z,69.42
2022-07-25T22:18:40.555Z,70.86
2022-07-25T22:21:07.112Z,74.29
2022-07-25T22:23:33.671Z,77.84
2022-07-25T22:26:03.538Z,82.52
2022-07-25T22:28:30.151Z,90.20
2022-07-25T22:30:57.754Z,97.05
2022-07-25T22:33:26.271Z,100.00
2022-07-25T22:35:52.798Z,100.00
2022-07-25T22:38:19.846Z,100.00
2022-07-25T22:40:46.744Z,100.00
2022-07-25T22:43:13.269Z,100.00
2022-07-25T22:45:42.917Z,100.00
2022-07-25T22:48:09.623Z,100.00
2022-07-25T22:50:36.173Z,100.00
2022-07-25T22:53:02.803Z,100.00
2022-07-25T22:55:29.407Z,100.00
2022-07-25T22:57:56.105Z,100.00
2022-07-25T23:00:22.685Z,100.00
2022-07-25T23:02:49.290Z,100.00
2022-07-25T23:05:16.196Z,100.00
2022-07-25T23:07:42.746Z,100.00
2022-07-25T23:10:10.101Z,100.00
2022-07-25T23:12:36.877Z,100.00
2022-07-25T23:15:04.482Z,100.00
2022-07-25T23:17:31.209Z,100.00
2022-07-25T23:19:58.418Z,100.00
2022-07-25T23:22:26.570Z,100.00
2022-07-25T23:24:53.101Z,100.00
2022-07-25T23:27:19.743Z,100.00
2022-07-25T23:29:46.369Z,100.00
2022-07-25T23:32:13.233Z,100.00
2022-07-25T23:34:40.571Z,100.00
2022-07-25T23:37:07.302Z,100.00
2022-07-25T23:39:33.900Z,100.00
2022-07-25T23:42:00.728Z,100.00
2022-07-25T23:44:27.449Z,100.00
2022-07-25T23:46:56.726Z,100.00
2022-07-25T23:49:24.042Z,100.00
2022-07-25T23:51:50.695Z,100.00
2022-07-25T23:54:17.283Z,100.00
2022-07-25T23:56:43.866Z,100.00
2022-07-25T23:59:10.955Z,100.00
